SBLOSBCT

Guest
Details From SBLO - Londrina
To SBCT - Afonso Pena
Flight Number -
Tags Generated
Created
Modified
Stats Distance 170 nm / 315 km
Max Altitude 0 ft / 0 m
Waypoints 2
Social Downloads 75
Likes 0
Share VATSIM

Download

Looking for another format? Having issues loading an existing format? Contact us
Advertisement - Login to hide

Notes

Generated

Route

SBLO SBCT

ID Type Via Altitude Latitude Longitude Leg Dist Tot Dist Heading (true) Name
O SBLO APT - 0 ft / 0 m -23.33033˚ -51.13977˚ - 0 nm - -
O SBCT APT - 0 ft / 0 m -25.52836˚ -49.18010˚ 170 nm 170 nm 141° / 141° -

Altitude Profile

Advertisement - Login to hide

Weather


0- 5 10 15 20 25 30 35+ Temperature / ° C

Clouds and Precipitation
Forecast for 2018-05-28 00:00 UTC. Updated 7 hours ago

Ground ~20,000 ft ~40,000 ft Winds

SBLO

Details ICAO SBLO (LDB)
Name Londrina
Region Brazil
Timezone America/Sao_Paulo (UTC-3.0)
Stats Elevation 1,867 ft / 569 m (AMSL)
Location -23.333624° -51.130072°
Runways 1
Magnetic Variation 19.141° W

METAR

Not found

TAF

TAF TAF SBLO 272230Z 2800/2812 00000KT CAVOK TX20/2800Z TN17/2808Z RMK PEB

Decode

Departure Runways

ID Width Length Bearing (true) Bearing (mag) Surface Threshold Offset Overrun Length
13 148 ft / 45 m 6,926 ft / 2,111 m 110.29° 129.43° Asphalt 975 ft / 297 m 0 ft / 0 m
31 148 ft / 45 m 6,926 ft / 2,111 m 290.28° 309.42° Asphalt 0 ft / 0 m 100 ft / 30 m

SBCT

Details ICAO SBCT (CWB)
Name Afonso Pena
Region Brazil
Timezone America/Sao_Paulo (UTC-3.0)
Stats Elevation 2,988 ft / 911 m (AMSL)
Location -25.528885° -49.173062°
Runways 2
Magnetic Variation 19.676° W

METAR

Not found

TAF

TAF SBCT 272230Z 2800/2824 10005KT CAVOK TN12/2809Z TX21/2818Z BECMG 2800/2802 8000 BKN005 PROB40 TEMPO 2802/2811 0500 FG VV001 BECMG 2811/2813 9999 NSW BKN010 BECMG 2813/2815 SCT020 RMK PEB

Decode

Destination Runways

ID Width Length Bearing (true) Bearing (mag) Surface Threshold Offset Overrun Length
11 148 ft / 45 m 5,909 ft / 1,801 m 91.79° 111.47° Asphalt 0 ft / 0 m 0 ft / 0 m
15 148 ft / 45 m 7,290 ft / 2,222 m 134.76° 154.44° Asphalt 0 ft / 0 m 190 ft / 58 m
29 148 ft / 45 m 5,909 ft / 1,801 m 271.78° 291.46° Asphalt 0 ft / 0 m 0 ft / 0 m
33 148 ft / 45 m 7,290 ft / 2,222 m 314.75° 334.43° Asphalt 0 ft / 0 m 185 ft / 56 m

Approach Navaids

Runway Type Ident Frequency Range Bearing (true) Bearing (mag) Slope Elevation
15 Localiser ICT 109.30 MHz 18 nm / 33 km 134.93° 154.61° - 2,990 ft / 911 m (AMSL)
15 Glidescope ICT 109.30 MHz 10 nm / 19 km 134.75° 154.43° 3.04° 2,990 ft / 911 m (AMSL)

Popular Alternatives